createdAt,value
2023-03-07T00:02:18.405Z,14.15
2023-03-07T00:04:53.223Z,13.15
2023-03-07T00:07:26.089Z,13.70
2023-03-07T00:10:03.807Z,13.68
2023-03-07T00:12:32.460Z,12.97
2023-03-07T00:15:01.034Z,12.83
2023-03-07T00:17:29.363Z,12.77
2023-03-07T00:20:01.094Z,13.03
2023-03-07T00:22:30.005Z,14.37
2023-03-07T00:24:58.218Z,13.87
2023-03-07T00:27:28.197Z,15.20
2023-03-07T00:29:56.855Z,13.60
2023-03-07T00:32:26.991Z,14.83
2023-03-07T00:34:57.145Z,14.23
2023-03-07T00:37:27.632Z,13.77
2023-03-07T00:39:57.692Z,13.97
2023-03-07T00:42:27.861Z,13.77
2023-03-07T00:44:57.680Z,13.97
2023-03-07T00:47:26.018Z,14.57
2023-03-07T00:49:54.321Z,13.77
2023-03-07T00:52:22.628Z,14.63
2023-03-07T00:54:53.170Z,14.13
2023-03-07T00:57:21.867Z,13.80
2023-03-07T00:59:52.063Z,15.23
2023-03-07T01:02:21.683Z,13.13
2023-03-07T01:04:50.452Z,14.17
2023-03-07T01:07:19.237Z,15.20
2023-03-07T01:09:53.327Z,14.93
2023-03-07T01:12:21.560Z,15.20
2023-03-07T01:14:51.740Z,15.07
2023-03-07T01:17:20.654Z,15.60
2023-03-07T01:19:51.262Z,15.23
2023-03-07T01:22:21.129Z,15.13
2023-03-07T01:24:49.819Z,15.97
2023-03-07T01:27:20.288Z,15.10
2023-03-07T01:29:48.624Z,14.77
2023-03-07T01:32:17.659Z,14.60
2023-03-07T01:34:49.079Z,15.53
2023-03-07T01:37:18.944Z,15.33
2023-03-07T01:39:48.463Z,14.97
2023-03-07T01:42:17.030Z,15.50
2023-03-07T01:45:06.715Z,15.70
2023-03-07T01:47:36.890Z,16.07
2023-03-07T01:50:11.759Z,15.97
2023-03-07T01:52:42.218Z,14.70
2023-03-07T01:55:14.836Z,16.30
2023-03-07T01:57:48.532Z,15.77
2023-03-07T02:00:28.727Z,15.13
2023-03-07T02:03:04.236Z,16.50
2023-03-07T02:05:38.320Z,17.57
2023-03-07T02:08:10.765Z,16.23
2023-03-07T02:10:40.446Z,16.70
2023-03-07T02:13:09.461Z,14.90
2023-03-07T02:15:40.980Z,16.90
2023-03-07T02:18:10.962Z,15.67
2023-03-07T02:20:46.614Z,17.47
2023-03-07T02:23:23.316Z,17.07
2023-03-07T02:25:58.224Z,17.10
2023-03-07T02:28:30.254Z,16.90
2023-03-07T02:31:04.255Z,15.73
2023-03-07T02:33:33.108Z,19.10
2023-03-07T02:36:06.506Z,17.07
2023-03-07T02:38:39.862Z,17.87
2023-03-07T02:41:10.134Z,18.30
2023-03-07T02:43:41.589Z,19.10
2023-03-07T02:46:10.188Z,17.43
2023-03-07T02:48:41.591Z,17.90
2023-03-07T02:51:09.971Z,17.03
2023-03-07T02:53:39.458Z,16.83
2023-03-07T02:56:09.070Z,19.90
2023-03-07T02:58:37.380Z,18.50
2023-03-07T03:01:09.363Z,17.47
2023-03-07T03:03:38.438Z,19.07
2023-03-07T03:06:08.915Z,17.43
2023-03-07T03:08:37.182Z,17.87
2023-03-07T03:11:05.802Z,19.40
2023-03-07T03:13:34.615Z,18.97
2023-03-07T03:16:04.442Z,17.63
2023-03-07T03:18:34.480Z,19.47
2023-03-07T03:21:09.034Z,18.27
2023-03-07T03:23:38.726Z,18.53
2023-03-07T03:26:11.574Z,17.93
2023-03-07T03:28:41.756Z,17.17
2023-03-07T03:31:15.441Z,17.83
2023-03-07T03:33:49.409Z,17.43
2023-03-07T03:36:19.354Z,19.37
2023-03-07T03:38:50.285Z,17.90
2023-03-07T03:41:19.289Z,19.67
2023-03-07T03:43:47.604Z,19.80
2023-03-07T03:46:16.895Z,20.00
2023-03-07T03:48:45.290Z,20.17
2023-03-07T03:51:15.642Z,19.37
2023-03-07T03:53:43.969Z,19.17
2023-03-07T03:56:15.894Z,19.27
2023-03-07T03:58:48.206Z,18.27
2023-03-07T04:01:17.524Z,19.40
2023-03-07T04:03:47.625Z,18.80
2023-03-07T04:06:20.935Z,17.50
2023-03-07T04:08:50.247Z,17.43
2023-03-07T04:11:21.753Z,17.63
2023-03-07T04:13:50.319Z,17.47
2023-03-07T04:16:20.318Z,16.03
2023-03-07T04:18:50.259Z,16.77
2023-03-07T04:21:20.920Z,17.00
2023-03-07T04:23:55.358Z,17.07
2023-03-07T04:26:23.721Z,17.27
2023-03-07T04:28:52.890Z,15.70
2023-03-07T04:31:23.325Z,16.17
2023-03-07T04:33:56.153Z,16.40
2023-03-07T04:36:26.946Z,15.33
2023-03-07T04:38:56.394Z,15.90
2023-03-07T04:41:26.733Z,15.17
2023-03-07T04:43:55.012Z,13.77
2023-03-07T04:46:23.994Z,14.97
2023-03-07T04:48:52.162Z,14.97
2023-03-07T04:51:20.994Z,14.50
2023-03-07T04:53:50.541Z,14.00
2023-03-07T04:56:19.421Z,12.93
2023-03-07T04:58:49.696Z,13.23
2023-03-07T05:01:17.961Z,13.27
2023-03-07T05:03:47.932Z,13.87
2023-03-07T05:06:19.427Z,14.60
2023-03-07T05:08:47.864Z,13.23
2023-03-07T05:11:17.782Z,14.03
2023-03-07T05:13:46.152Z,13.20
2023-03-07T05:16:14.296Z,14.47
2023-03-07T05:18:45.617Z,15.57
2023-03-07T05:21:14.773Z,13.90
2023-03-07T05:23:43.441Z,14.40
2023-03-07T05:26:12.067Z,13.87
2023-03-07T05:28:43.821Z,12.90
2023-03-07T05:31:13.739Z,13.03
2023-03-07T05:33:42.900Z,13.03
2023-03-07T05:36:11.822Z,14.70
2023-03-07T05:38:40.725Z,14.20
2023-03-07T05:41:09.224Z,13.37
2023-03-07T05:43:37.617Z,13.03
2023-03-07T05:46:07.982Z,11.80
2023-03-07T05:48:36.230Z,13.00
2023-03-07T05:51:04.971Z,11.57
2023-03-07T05:53:34.627Z,11.87
2023-03-07T05:56:04.303Z,11.83
2023-03-07T05:58:34.124Z,12.67
2023-03-07T06:01:03.820Z,11.10
2023-03-07T06:03:34.452Z,10.33
2023-03-07T06:06:03.164Z,11.50
2023-03-07T06:08:31.589Z,11.13
2023-03-07T06:11:00.149Z,9.50
2023-03-07T06:13:28.952Z,10.43
2023-03-07T06:15:57.403Z,10.60
2023-03-07T06:18:26.872Z,9.90
2023-03-07T06:20:58.750Z,11.17
2023-03-07T06:23:31.689Z,10.83
2023-03-07T06:26:00.464Z,11.23
2023-03-07T06:28:31.211Z,10.43
2023-03-07T06:31:00.821Z,10.53
2023-03-07T06:33:29.094Z,11.37
2023-03-07T06:35:59.257Z,10.30
2023-03-07T06:38:28.243Z,11.10
2023-03-07T06:40:58.244Z,10.57
2023-03-07T06:43:28.485Z,10.93
2023-03-07T06:45:57.388Z,11.60
2023-03-07T06:48:26.609Z,11.07
2023-03-07T06:50:54.997Z,10.40
2023-03-07T06:53:26.872Z,10.90
2023-03-07T06:55:56.673Z,10.50
2023-03-07T06:58:26.297Z,10.07
2023-03-07T07:00:54.697Z,11.77
2023-03-07T07:03:23.749Z,10.13
2023-03-07T07:05:52.685Z,10.97
2023-03-07T07:08:22.784Z,10.57
2023-03-07T07:10:52.635Z,10.60
2023-03-07T07:13:21.134Z,11.43
2023-03-07T07:15:49.584Z,11.23
2023-03-07T07:18:17.858Z,10.57
2023-03-07T07:20:46.507Z,11.48
2023-03-07T07:23:14.814Z,10.57
2023-03-07T07:25:42.994Z,10.63
2023-03-07T07:28:14.329Z,10.50
2023-03-07T07:30:45.830Z,11.25
2023-03-07T07:33:14.744Z,11.33
2023-03-07T07:35:44.372Z,10.87
2023-03-07T07:38:13.236Z,11.57
2023-03-07T07:40:43.002Z,11.70
2023-03-07T07:43:17.077Z,12.30
2023-03-07T07:45:45.337Z,11.15
2023-03-07T07:48:13.619Z,12.27
2023-03-07T07:50:42.017Z,11.05
2023-03-07T07:53:10.346Z,12.43
2023-03-07T07:55:39.167Z,11.93
2023-03-07T07:58:07.987Z,12.40
2023-03-07T08:00:39.429Z,11.53
2023-03-07T08:03:08.230Z,12.07
2023-03-07T08:05:36.437Z,12.77
2023-03-07T08:08:05.274Z,13.37
2023-03-07T08:10:35.801Z,13.30
2023-03-07T08:13:04.224Z,12.57
2023-03-07T08:15:33.783Z,12.80
2023-03-07T08:18:03.527Z,12.43
2023-03-07T08:20:33.639Z,11.87
2023-03-07T08:23:03.679Z,12.40
2023-03-07T08:25:32.170Z,13.98
2023-03-07T08:28:03.555Z,13.88
2023-03-07T08:30:36.943Z,14.35
2023-03-07T08:33:07.450Z,13.80
2023-03-07T08:35:36.046Z,14.95
2023-03-07T08:38:04.626Z,12.60
2023-03-07T08:40:34.253Z,15.65
2023-03-07T08:43:03.836Z,14.33
2023-03-07T08:45:32.583Z,14.07
2023-03-07T08:48:01.069Z,13.57
2023-03-07T08:50:32.097Z,13.85
2023-03-07T08:53:00.389Z,14.20
2023-03-07T08:55:29.115Z,14.35
2023-03-07T08:57:57.524Z,13.80
2023-03-07T09:00:26.002Z,15.70
2023-03-07T09:02:58.384Z,14.25
2023-03-07T09:05:26.691Z,15.38
2023-03-07T09:07:57.088Z,15.38
2023-03-07T09:10:27.324Z,16.42
2023-03-07T09:12:55.839Z,16.30
2023-03-07T09:15:24.303Z,14.48
2023-03-07T09:17:52.557Z,14.70
2023-03-07T09:20:21.168Z,15.75
2023-03-07T09:22:51.690Z,14.10
2023-03-07T09:25:22.859Z,14.77
2023-03-07T09:27:52.060Z,14.98
2023-03-07T09:30:20.796Z,14.20
2023-03-07T09:32:49.058Z,13.20
2023-03-07T09:35:19.011Z,16.10
2023-03-07T09:37:47.612Z,14.75
2023-03-07T09:40:20.026Z,15.57
2023-03-07T09:42:58.244Z,14.88
2023-03-07T09:45:38.963Z,15.03
2023-03-07T09:48:51.241Z,14.77
2023-03-07T09:51:22.546Z,13.90
2023-03-07T09:53:55.303Z,15.48
2023-03-07T09:56:28.750Z,14.05
2023-03-07T09:59:21.974Z,14.67
2023-03-07T10:01:56.417Z,14.40
2023-03-07T10:04:33.302Z,13.52
2023-03-07T10:07:06.042Z,13.10
2023-03-07T10:09:35.388Z,13.40
2023-03-07T10:12:19.210Z,13.10
2023-03-07T10:15:04.663Z,13.50
2023-03-07T10:18:09.051Z,12.82
2023-03-07T10:20:44.941Z,12.73
2023-03-07T10:23:39.289Z,12.88
2023-03-07T10:26:12.505Z,13.90
2023-03-07T10:28:45.616Z,12.00
2023-03-07T10:31:25.576Z,13.02
2023-03-07T10:33:55.590Z,11.27
2023-03-07T10:36:34.579Z,11.82
2023-03-07T10:39:08.301Z,11.95
2023-03-07T10:41:36.563Z,11.05
2023-03-07T10:44:05.423Z,13.23
2023-03-07T10:46:38.087Z,11.70
2023-03-07T10:49:15.004Z,12.13
2023-03-07T10:51:54.570Z,11.90
2023-03-07T10:54:25.475Z,11.48
2023-03-07T10:57:09.098Z,11.90
2023-03-07T10:59:39.369Z,10.88
2023-03-07T11:02:32.577Z,11.25
2023-03-07T11:05:02.032Z,11.18
2023-03-07T11:07:33.059Z,10.25
2023-03-07T11:10:02.513Z,9.10
2023-03-07T11:12:32.044Z,8.32
2023-03-07T11:15:12.347Z,9.90
2023-03-07T11:17:47.936Z,8.35
2023-03-07T11:20:22.763Z,9.18
2023-03-07T11:23:01.833Z,8.18
2023-03-07T11:25:37.419Z,6.85
2023-03-07T11:28:24.204Z,6.28
2023-03-07T11:30:57.803Z,3.30
2023-03-07T11:33:32.704Z,2.63
2023-03-07T11:36:08.600Z,1.63
2023-03-07T11:38:47.893Z,1.40
2023-03-07T11:41:25.546Z,1.58
2023-03-07T11:44:19.632Z,2.08
2023-03-07T11:47:12.739Z,1.73
2023-03-07T11:49:47.737Z,2.20
2023-03-07T11:52:30.798Z,2.05
2023-03-07T11:55:12.155Z,3.10
2023-03-07T11:57:55.252Z,4.72
2023-03-07T12:00:32.365Z,2.60
2023-03-07T12:03:25.250Z,2.15
2023-03-07T12:06:21.187Z,1.70
2023-03-07T12:09:03.545Z,1.10
2023-03-07T12:11:49.287Z,0.80
2023-03-07T12:14:31.709Z,0.60
2023-03-07T12:17:14.491Z,0.60
2023-03-07T12:20:03.508Z,0.50
2023-03-07T12:22:44.170Z,0.60
2023-03-07T12:25:35.033Z,0.50
2023-03-07T12:28:14.760Z,0.55
2023-03-07T12:30:56.507Z,0.80
2023-03-07T12:33:30.933Z,0.70
2023-03-07T12:36:04.533Z,0.60
2023-03-07T12:38:41.414Z,0.57
2023-03-07T12:41:22.595Z,0.50
2023-03-07T12:43:55.769Z,0.88
2023-03-07T12:46:35.108Z,0.60
2023-03-07T12:49:15.995Z,0.70
2023-03-07T12:51:49.782Z,0.50
2023-03-07T12:54:26.849Z,0.50
2023-03-07T12:57:02.518Z,0.80
2023-03-07T12:59:37.137Z,0.52
2023-03-07T13:02:11.707Z,0.68
2023-03-07T13:04:43.341Z,1.10
2023-03-07T13:07:16.758Z,1.70
2023-03-07T13:09:50.022Z,0.70
2023-03-07T13:12:33.284Z,0.98
2023-03-07T13:15:02.628Z,0.60
2023-03-07T13:17:56.459Z,0.57
2023-03-07T13:20:46.081Z,0.60
2023-03-07T13:23:28.773Z,0.60
2023-03-07T13:26:05.920Z,0.80
2023-03-07T13:28:48.085Z,0.88
2023-03-07T13:31:42.909Z,0.80
2023-03-07T13:34:51.504Z,0.63
2023-03-07T13:37:51.043Z,0.70
2023-03-07T13:40:55.246Z,0.30
2023-03-07T13:44:02.623Z,0.30
2023-03-07T13:47:01.150Z,0.32
2023-03-07T13:49:44.843Z,0.30
2023-03-07T13:52:36.794Z,0.30
2023-03-07T13:55:20.895Z,0.40
2023-03-07T13:57:50.093Z,0.50
2023-03-07T14:00:28.171Z,0.40
2023-03-07T14:02:57.327Z,0.40
2023-03-07T14:05:29.928Z,0.52
2023-03-07T14:08:01.328Z,0.40
2023-03-07T14:10:32.762Z,0.68
2023-03-07T14:13:28.552Z,0.60
2023-03-07T14:16:18.519Z,0.60
2023-03-07T14:19:00.228Z,0.50
2023-03-07T14:21:39.961Z,0.30
2023-03-07T14:24:33.488Z,0.30
2023-03-07T14:27:06.358Z,0.50
2023-03-07T14:29:36.742Z,0.28
2023-03-07T14:32:25.976Z,0.30
2023-03-07T14:34:55.888Z,0.57
2023-03-07T14:37:27.447Z,0.50
2023-03-07T14:40:16.834Z,0.50
2023-03-07T14:42:53.990Z,0.80
2023-03-07T14:45:29.430Z,0.57
2023-03-07T14:48:24.014Z,0.68
2023-03-07T14:50:54.294Z,0.50
2023-03-07T14:53:26.083Z,0.80
2023-03-07T14:55:56.211Z,0.50
2023-03-07T14:58:28.362Z,0.40
2023-03-07T15:01:02.999Z,0.40
2023-03-07T15:03:33.526Z,0.40
2023-03-07T15:06:03.482Z,0.80
2023-03-07T15:08:33.448Z,0.70
2023-03-07T15:11:08.143Z,0.60
2023-03-07T15:13:45.937Z,0.45
2023-03-07T15:16:19.649Z,0.60
2023-03-07T15:18:52.676Z,0.60
2023-03-07T15:21:23.969Z,0.70
2023-03-07T15:23:55.159Z,0.50
2023-03-07T15:26:25.073Z,0.50
2023-03-07T15:29:00.766Z,0.90
2023-03-07T15:31:32.084Z,0.73
2023-03-07T15:34:24.079Z,0.50
2023-03-07T15:36:54.642Z,0.60
2023-03-07T15:39:33.170Z,0.68
2023-03-07T15:42:04.687Z,0.55
2023-03-07T15:44:36.527Z,0.70
2023-03-07T15:47:17.900Z,0.70
2023-03-07T15:49:50.215Z,1.00
2023-03-07T15:52:30.526Z,0.88
2023-03-07T15:55:00.798Z,0.63
2023-03-07T15:57:33.148Z,0.57
2023-03-07T16:00:04.892Z,0.45
2023-03-07T16:02:45.266Z,0.57
2023-03-07T16:05:37.576Z,0.45
2023-03-07T16:08:13.330Z,0.80
2023-03-07T16:10:47.972Z,0.70
2023-03-07T16:13:22.066Z,0.57
2023-03-07T16:16:03.667Z,0.70
2023-03-07T16:18:33.912Z,0.60
2023-03-07T16:21:04.140Z,0.73
2023-03-07T16:23:34.200Z,0.70
2023-03-07T16:26:06.029Z,0.80
2023-03-07T16:28:36.069Z,0.57
2023-03-07T16:31:04.442Z,0.77
2023-03-07T16:33:34.964Z,0.77
2023-03-07T16:36:05.976Z,0.60
2023-03-07T16:38:34.417Z,0.68
2023-03-07T16:41:04.496Z,0.50
2023-03-07T16:43:35.898Z,0.50
2023-03-07T16:46:06.889Z,0.55
2023-03-07T16:48:35.527Z,0.52
2023-03-07T16:51:06.687Z,0.50
2023-03-07T16:53:34.964Z,0.45
2023-03-07T16:56:03.716Z,0.95
2023-03-07T16:58:34.980Z,0.50
2023-03-07T17:01:03.773Z,0.50
2023-03-07T17:03:32.198Z,0.50
2023-03-07T17:06:01.140Z,0.50
2023-03-07T17:08:32.193Z,0.43
2023-03-07T17:11:02.583Z,0.50
2023-03-07T17:13:31.544Z,0.60
2023-03-07T17:16:00.688Z,0.60
2023-03-07T17:18:33.717Z,0.50
2023-03-07T17:21:02.814Z,0.77
2023-03-07T17:23:32.760Z,0.50
2023-03-07T17:26:01.349Z,0.40
2023-03-07T17:28:29.955Z,0.50
2023-03-07T17:30:58.508Z,0.60
2023-03-07T17:33:27.845Z,0.40
2023-03-07T17:35:58.275Z,0.55
2023-03-07T17:38:27.048Z,0.50
2023-03-07T17:40:58.494Z,0.50
2023-03-07T17:43:26.908Z,0.40
2023-03-07T17:45:55.668Z,0.82
2023-03-07T17:48:24.014Z,1.00
2023-03-07T17:50:52.643Z,0.88
2023-03-07T17:53:20.917Z,0.85
2023-03-07T17:55:49.193Z,5.72
2023-03-07T17:58:18.945Z,0.70
2023-03-07T18:00:47.938Z,1.00
2023-03-07T18:03:16.997Z,1.00
2023-03-07T18:05:45.790Z,0.90
2023-03-07T18:08:14.020Z,1.00
2023-03-07T18:10:43.360Z,1.10
2023-03-07T18:13:12.016Z,1.00
2023-03-07T18:15:45.781Z,1.30
2023-03-07T18:18:16.332Z,1.35
2023-03-07T18:20:46.057Z,1.50
2023-03-07T18:23:15.113Z,1.20
2023-03-07T18:25:43.580Z,1.45
2023-03-07T18:28:12.460Z,1.02
2023-03-07T18:30:43.219Z,1.33
2023-03-07T18:33:11.705Z,1.30
2023-03-07T18:35:40.116Z,1.40
2023-03-07T18:38:09.346Z,1.60
2023-03-07T18:40:37.645Z,1.70
2023-03-07T18:43:06.875Z,1.40
2023-03-07T18:45:35.776Z,1.60
2023-03-07T18:48:06.129Z,1.50
2023-03-07T18:50:34.786Z,1.77
2023-03-07T18:53:03.375Z,1.90
2023-03-07T18:55:33.127Z,1.80
2023-03-07T18:58:01.756Z,2.10
2023-03-07T19:00:30.000Z,2.08
2023-03-07T19:02:58.276Z,2.28
2023-03-07T19:05:28.157Z,1.95
2023-03-07T19:07:57.229Z,2.40
2023-03-07T19:10:25.542Z,2.13
2023-03-07T19:12:54.280Z,2.20
2023-03-07T19:15:22.482Z,2.50
2023-03-07T19:17:50.658Z,2.05
2023-03-07T19:20:20.109Z,2.05
2023-03-07T19:22:50.235Z,2.38
2023-03-07T19:25:19.177Z,2.65
2023-03-07T19:27:47.708Z,2.33
2023-03-07T19:30:20.756Z,2.50
2023-03-07T19:32:48.906Z,2.10
2023-03-07T19:35:17.503Z,2.53
2023-03-07T19:37:45.698Z,2.90
2023-03-07T19:40:15.728Z,2.47
2023-03-07T19:42:43.993Z,2.95
2023-03-07T19:45:12.798Z,3.03
2023-03-07T19:47:41.423Z,2.75
2023-03-07T19:50:11.956Z,3.80
2023-03-07T19:52:42.002Z,3.40
2023-03-07T19:55:10.850Z,3.17
2023-03-07T19:57:41.455Z,3.03
2023-03-07T20:00:13.786Z,2.50
2023-03-07T20:02:44.889Z,2.58
2023-03-07T20:05:13.834Z,2.80
2023-03-07T20:07:42.267Z,3.15
2023-03-07T20:10:12.592Z,3.00
2023-03-07T20:12:42.776Z,2.65
2023-03-07T20:15:12.282Z,2.90
2023-03-07T20:17:41.384Z,2.42
2023-03-07T20:20:11.231Z,2.40
2023-03-07T20:22:41.324Z,2.50
2023-03-07T20:25:11.338Z,2.15
2023-03-07T20:27:41.668Z,2.40
2023-03-07T20:30:12.209Z,2.83
2023-03-07T20:32:41.353Z,2.30
2023-03-07T20:35:10.679Z,2.60
2023-03-07T20:37:39.535Z,2.38
2023-03-07T20:40:12.567Z,2.38
2023-03-07T20:42:43.804Z,2.15
2023-03-07T20:45:13.706Z,2.38
2023-03-07T20:47:42.422Z,2.92
2023-03-07T20:50:12.725Z,2.43
2023-03-07T20:52:41.121Z,2.88
2023-03-07T20:55:12.870Z,2.60
2023-03-07T20:57:42.550Z,3.13
2023-03-07T21:00:13.845Z,3.35
2023-03-07T21:02:42.110Z,2.83
2023-03-07T21:05:10.822Z,2.72
2023-03-07T21:07:40.097Z,2.95
2023-03-07T21:10:08.965Z,2.88
2023-03-07T21:12:37.714Z,3.40
2023-03-07T21:15:10.740Z,3.33
2023-03-07T21:17:39.130Z,2.97
2023-03-07T21:20:08.283Z,3.13
2023-03-07T21:22:37.425Z,3.08
2023-03-07T21:25:06.612Z,3.17
2023-03-07T21:27:35.553Z,3.40
2023-03-07T21:30:04.610Z,2.97
2023-03-07T21:32:35.255Z,3.00
2023-03-07T21:35:04.267Z,2.50
2023-03-07T21:37:35.253Z,3.03
2023-03-07T21:40:05.214Z,2.50
2023-03-07T21:42:34.447Z,2.58
2023-03-07T21:45:03.500Z,2.60
2023-03-07T21:47:31.863Z,2.55
2023-03-07T21:50:01.769Z,2.33
2023-03-07T21:52:31.079Z,2.10
2023-03-07T21:55:00.625Z,2.22
2023-03-07T21:57:30.591Z,2.63
2023-03-07T21:59:59.840Z,2.35
2023-03-07T22:02:28.606Z,2.20
2023-03-07T22:04:56.849Z,2.50
2023-03-07T22:07:26.381Z,2.72
2023-03-07T22:09:55.336Z,2.57
2023-03-07T22:12:23.574Z,2.40
2023-03-07T22:14:52.559Z,2.70
2023-03-07T22:17:21.099Z,2.63
2023-03-07T22:19:50.237Z,2.78
2023-03-07T22:22:20.124Z,2.72
2023-03-07T22:24:51.324Z,2.22
2023-03-07T22:27:19.921Z,2.30
2023-03-07T22:29:48.248Z,2.63
2023-03-07T22:32:16.984Z,2.53
2023-03-07T22:34:45.469Z,2.37
2023-03-07T22:37:13.989Z,2.25
2023-03-07T22:39:42.674Z,2.28
2023-03-07T22:42:13.129Z,2.38
2023-03-07T22:44:41.295Z,2.40
2023-03-07T22:47:09.887Z,2.60
2023-03-07T22:49:39.237Z,2.00
2023-03-07T22:52:07.559Z,2.13
2023-03-07T22:54:39.260Z,2.10
2023-03-07T22:57:08.384Z,2.53
2023-03-07T22:59:38.384Z,2.30
2023-03-07T23:02:07.474Z,2.30
2023-03-07T23:04:37.183Z,2.50
2023-03-07T23:07:07.025Z,2.00
2023-03-07T23:09:35.415Z,2.50
2023-03-07T23:12:03.816Z,2.30
2023-03-07T23:14:32.306Z,2.10
2023-03-07T23:17:02.055Z,1.80
2023-03-07T23:19:31.606Z,2.15
2023-03-07T23:22:00.692Z,1.75
2023-03-07T23:24:29.070Z,1.80
2023-03-07T23:26:57.377Z,1.77
2023-03-07T23:29:26.330Z,2.13
2023-03-07T23:31:54.845Z,1.93
2023-03-07T23:34:24.904Z,2.10
2023-03-07T23:36:53.286Z,2.20
2023-03-07T23:39:21.985Z,1.92
2023-03-07T23:41:50.392Z,1.90
2023-03-07T23:44:19.328Z,2.22
2023-03-07T23:46:47.622Z,2.20
2023-03-07T23:49:17.274Z,1.90
2023-03-07T23:51:47.827Z,2.37
2023-03-07T23:54:16.142Z,2.50
2023-03-07T23:56:44.526Z,2.60
2023-03-07T23:59:12.687Z,2.45
